Matrei, Austria
Current Conditions -  °F | °C
As of 3:20 AM on Wednesday 26 Nov 2014 (Local Time) from LOWI Reporting Station
Broken Clouds Broken Clouds  
Wind Chill: 45°   Ceiling: 900
Heat Index: 45°   Visibility: 6mi
Dew Point: 41°   Wind: 0mph
Humidity: 87%   Direction: NA
Pressure: 30.03"   Gusts: NA
Location:  47°N, 12.54°E
Report Text: LOWI 260120Z AUTO 00000KT 9999 BKN009 07/05 Q1017
Loading
Personal Weather Stations






























Interactive Weather Map New forecast layout! Learn more

10-Day Weather Forecast

Advertisements
Track Severe Weather on mobile